SARI METAR and TAF weather

Enter ICAO airport designator
Station Type Date Time Source
SARI METAR 2019/06/26 05:00 UTC NOAA

SARI 260500Z 18008KT 3000 RA BR BKN005 OVC030 13/13 Q1015


Station Type Date Time Source
SARI Decoded METAR 2019/06/26 05:00 UTC NOAA

Iguazu Aerodrome, Argentina (SARI) 25-44S 054-28W 270M
Jun 26, 2019 - 01:00 AM EDT / 2019.06.26 0500 UTC
Wind: from the S (180 degrees) at 9 MPH (8 KT):0
Visibility: 1 mile(s):0
Sky conditions: overcast
Weather: rain; mist
Temperature: 55 F (13 C)
Dew Point: 55 F (13 C)
Relative Humidity: 100%
Pressure (altimeter): 29.97 in. Hg (1015 hPa)
ob: SARI 260500Z 18008KT 3000 RA BR BKN005 OVC030 13/13 Q1015
cycle: 5

Station Type Date Time Source
SARI TAF 2019/06/26 06:06 UTC NOAA

TAF SARI 260500Z 2606/2706 18010KT 3000 RABR BKN005 OVC030 TX15/2618Z TN10/2609Z
BECMG 2608/2609 00000KT 0500 FG OVC005
BECMG 2615/2616 18005KT 9999 OVC010

Example: see airport list